DLH6TR EDDF-EHAM
Flight info
| Callsign | DLH6TR |
|---|---|
| Flight time | N/A |
| Altitude | 28000 |
| Route | MARUN6E MARUN Y152 ARPEG Z850 ABILU DCT AMSAN T281 NORKU |
| Aircraft | A21N/M-SDE2E3FGHIRWXY/LB1 |
Departure
| Time | 2026-04-18 07:04 |
|---|---|
| Airport | Frankfurt Main Airport (EDDF) |
Arrival
| Time | N/A |
|---|---|
| Airport | Amsterdam Airport Schiphol (EHAM) |
| Time | Latitude | Longitude | Altitude | Speed | Heading |
|---|---|---|---|---|---|
| 2026-04-18 06:46 | 50.03808 | 8.54590 | 353 ft | 0 kts | 160° |
| 2026-04-18 07:02 | 50.03807 | 8.54591 | 347 ft | 1 kts | 160° |
| 2026-04-18 07:02 | 50.03786 | 8.54603 | 352 ft | 6 kts | 160° |
| 2026-04-18 07:03 | 50.03739 | 8.54635 | 346 ft | 8 kts | 140° |
| 2026-04-18 07:03 | 50.03701 | 8.54704 | 349 ft | 10 kts | 159° |
| 2026-04-18 07:03 | 50.03626 | 8.54744 | 347 ft | 12 kts | 161° |
| 2026-04-18 07:03 | 50.03593 | 8.54855 | 349 ft | 14 kts | 70° |
| 2026-04-18 07:04 | 50.03670 | 8.55173 | 351 ft | 67 kts | 69° |
| 2026-04-18 07:04 | 50.03915 | 8.56197 | 355 ft | 133 kts | 69° |
| 2026-04-18 07:04 | 50.04302 | 8.57816 | 410 ft | 178 kts | 68° |
| 2026-04-18 07:04 | 50.04743 | 8.59592 | 1140 ft | 176 kts | 68° |
| 2026-04-18 07:05 | 50.05196 | 8.61379 | 1793 ft | 184 kts | 69° |
| 2026-04-18 07:05 | 50.05640 | 8.63345 | 2164 ft | 206 kts | 71° |
| 2026-04-18 07:05 | 50.06115 | 8.65564 | 2603 ft | 225 kts | 72° |
| 2026-04-18 07:05 | 50.06617 | 8.67912 | 3361 ft | 231 kts | 72° |
| 2026-04-18 07:06 | 50.07254 | 8.70229 | 4166 ft | 237 kts | 56° |
| 2026-04-18 07:06 | 50.08504 | 8.71939 | 4834 ft | 249 kts | 27° |
| 2026-04-18 07:06 | 50.10122 | 8.73048 | 5446 ft | 265 kts | 23° |
| 2026-04-18 07:06 | 50.11880 | 8.74212 | 6182 ft | 278 kts | 22° |
| 2026-04-18 07:07 | 50.13676 | 8.75405 | 7087 ft | 283 kts | 22° |
| 2026-04-18 07:07 | 50.15478 | 8.76613 | 8020 ft | 287 kts | 22° |
| 2026-04-18 07:07 | 50.17321 | 8.77852 | 8980 ft | 290 kts | 22° |
| 2026-04-18 07:07 | 50.19066 | 8.79032 | 9891 ft | 293 kts | 22° |
| 2026-04-18 07:08 | 50.20959 | 8.80317 | 10569 ft | 306 kts | 22° |
| 2026-04-18 07:08 | 50.22987 | 8.81691 | 10891 ft | 329 kts | 22° |
| 2026-04-18 07:08 | 50.24406 | 8.82653 | 11235 ft | 339 kts | 22° |
| 2026-04-18 07:08 | 50.27407 | 8.84148 | 12207 ft | 344 kts | 7° |
| 2026-04-18 07:09 | 50.29807 | 8.84358 | 13012 ft | 346 kts | 354° |
| 2026-04-18 07:09 | 50.31399 | 8.84079 | 13550 ft | 347 kts | 350° |
| 2026-04-18 07:09 | 50.33802 | 8.83564 | 14311 ft | 350 kts | 349° |
| 2026-04-18 07:09 | 50.36230 | 8.83039 | 15009 ft | 354 kts | 349° |
| 2026-04-18 07:10 | 50.38690 | 8.82511 | 15702 ft | 358 kts | 349° |
| 2026-04-18 07:10 | 50.41176 | 8.81983 | 16389 ft | 361 kts | 350° |
| 2026-04-18 07:10 | 50.43684 | 8.81450 | 17067 ft | 365 kts | 349° |
| 2026-04-18 07:10 | 50.46215 | 8.80912 | 17743 ft | 369 kts | 349° |
| 2026-04-18 07:11 | 50.48738 | 8.80375 | 18407 ft | 373 kts | 349° |
| 2026-04-18 07:11 | 50.51329 | 8.79821 | 18996 ft | 376 kts | 349° |
| 2026-04-18 07:11 | 50.53940 | 8.79262 | 19590 ft | 380 kts | 349° |
| 2026-04-18 07:11 | 50.56573 | 8.78687 | 20184 ft | 383 kts | 348° |
| 2026-04-18 07:12 | 50.59138 | 8.77686 | 20759 ft | 384 kts | 341° |
| 2026-04-18 07:12 | 50.61726 | 8.76504 | 21354 ft | 387 kts | 341° |
| 2026-04-18 07:12 | 50.64339 | 8.75316 | 21950 ft | 390 kts | 341° |
| 2026-04-18 07:12 | 50.66929 | 8.74138 | 22527 ft | 393 kts | 341° |
| 2026-04-18 07:13 | 50.69565 | 8.72937 | 23091 ft | 396 kts | 341° |
| 2026-04-18 07:13 | 50.72217 | 8.71727 | 23642 ft | 399 kts | 341° |
| 2026-04-18 07:13 | 50.74913 | 8.70494 | 23878 ft | 410 kts | 341° |
| 2026-04-18 07:13 | 50.77699 | 8.69216 | 24010 ft | 421 kts | 341° |
| 2026-04-18 07:14 | 50.80445 | 8.67513 | 24138 ft | 426 kts | 329° |
| 2026-04-18 07:14 | 50.82929 | 8.64878 | 24187 ft | 435 kts | 321° |
| 2026-04-18 07:14 | 50.85393 | 8.61999 | 24192 ft | 445 kts | 321° |
| 2026-04-18 07:14 | 50.87915 | 8.59033 | 24191 ft | 455 kts | 321° |
| 2026-04-18 07:15 | 50.90454 | 8.56034 | 24190 ft | 462 kts | 321° |
| 2026-04-18 07:15 | 50.93045 | 8.52965 | 24191 ft | 464 kts | 321° |
| 2026-04-18 07:15 | 50.95630 | 8.49903 | 24193 ft | 464 kts | 321° |
| 2026-04-18 07:15 | 50.98223 | 8.46832 | 24193 ft | 465 kts | 321° |
| 2026-04-18 07:16 | 51.00786 | 8.43793 | 24193 ft | 465 kts | 321° |
| 2026-04-18 07:16 | 51.03377 | 8.40714 | 24200 ft | 465 kts | 321° |
| 2026-04-18 07:16 | 51.05973 | 8.37622 | 24191 ft | 465 kts | 321° |
| 2026-04-18 07:16 | 51.08561 | 8.34532 | 24196 ft | 465 kts | 321° |
| 2026-04-18 07:17 | 51.11156 | 8.31429 | 24195 ft | 465 kts | 321° |
| 2026-04-18 07:17 | 51.13710 | 8.28368 | 24192 ft | 465 kts | 321° |
| 2026-04-18 07:17 | 51.16293 | 8.25267 | 24186 ft | 464 kts | 321° |
| 2026-04-18 07:17 | 51.18877 | 8.22162 | 24184 ft | 464 kts | 321° |
| 2026-04-18 07:18 | 51.21466 | 8.19055 | 24184 ft | 464 kts | 321° |
| 2026-04-18 07:18 | 51.24022 | 8.15985 | 24181 ft | 464 kts | 321° |
| 2026-04-18 07:18 | 51.26600 | 8.12882 | 24181 ft | 464 kts | 320° |
| 2026-04-18 07:18 | 51.29181 | 8.09766 | 24186 ft | 465 kts | 320° |
| 2026-04-18 07:19 | 51.31763 | 8.06641 | 24188 ft | 465 kts | 320° |
| 2026-04-18 07:19 | 51.34344 | 8.03511 | 24185 ft | 465 kts | 320° |
| 2026-04-18 07:19 | 51.36924 | 8.00375 | 24182 ft | 465 kts | 320° |
| 2026-04-18 07:19 | 51.39498 | 7.97240 | 24180 ft | 466 kts | 320° |
| 2026-04-18 07:20 | 51.42085 | 7.94092 | 24179 ft | 466 kts | 320° |
| 2026-04-18 07:20 | 51.44684 | 7.90965 | 24178 ft | 466 kts | 320° |
| 2026-04-18 07:20 | 51.47265 | 7.87896 | 24179 ft | 466 kts | 321° |
| 2026-04-18 07:20 | 51.49746 | 7.84969 | 24180 ft | 467 kts | 321° |
| 2026-04-18 07:21 | 51.52383 | 7.81866 | 24180 ft | 467 kts | 321° |
| 2026-04-18 07:21 | 51.55002 | 7.78769 | 24181 ft | 467 kts | 321° |
| 2026-04-18 07:21 | 51.57616 | 7.75658 | 24189 ft | 467 kts | 320° |
| 2026-04-18 07:21 | 51.60235 | 7.72522 | 24189 ft | 467 kts | 320° |
| 2026-04-18 07:22 | 51.62810 | 7.69426 | 24188 ft | 468 kts | 320° |
| 2026-04-18 07:22 | 51.65340 | 7.66373 | 24187 ft | 468 kts | 320° |
| 2026-04-18 07:22 | 51.67949 | 7.63218 | 24187 ft | 468 kts | 320° |
| 2026-04-18 07:22 | 51.70562 | 7.60056 | 24191 ft | 468 kts | 320° |
| 2026-04-18 07:23 | 51.73171 | 7.56901 | 24194 ft | 468 kts | 320° |
| 2026-04-18 07:23 | 51.75788 | 7.53737 | 24196 ft | 468 kts | 320° |
| 2026-04-18 07:23 | 51.78372 | 7.50613 | 24198 ft | 469 kts | 320° |
| 2026-04-18 07:23 | 51.80991 | 7.47445 | 24216 ft | 469 kts | 320° |
| 2026-04-18 07:24 | 51.83599 | 7.44282 | 24211 ft | 469 kts | 320° |
| 2026-04-18 07:24 | 51.86217 | 7.41099 | 24210 ft | 469 kts | 320° |
| 2026-04-18 07:24 | 51.88793 | 7.37961 | 24208 ft | 470 kts | 319° |
| 2026-04-18 07:24 | 51.91442 | 7.34733 | 24207 ft | 470 kts | 320° |
| 2026-04-18 07:25 | 51.94025 | 7.31581 | 24223 ft | 470 kts | 319° |
| 2026-04-18 07:25 | 51.96634 | 7.28392 | 24219 ft | 470 kts | 319° |
| 2026-04-18 07:25 | 51.98398 | 7.26234 | 24220 ft | 470 kts | 319° |
| 2026-04-18 07:25 | 52.02141 | 7.21644 | 24217 ft | 469 kts | 319° |
| 2026-04-18 07:26 | 52.04748 | 7.18436 | 24217 ft | 469 kts | 319° |
| 2026-04-18 07:26 | 52.07352 | 7.15225 | 24226 ft | 469 kts | 319° |
| 2026-04-18 07:26 | 52.09075 | 7.13098 | 24223 ft | 469 kts | 319° |